Time;durP1;ratioP1;P1;durP2;ratioP2;P2;SDS_P1;SDS_P2;PMS_P1;PMS_P2;Temp;Humidity;BMP_temperature;BMP_pressure;BME280_temperature;BME280_humidity;BME280_pressure;Samples;Min_cycle;Max_cycle;Signal;HPM_P1;HPM_P2
2022/08/08 00:02:36;;;;;;;0.40;0.30;;;;;;;-145.06;100.00;60892.56;5927244;23;20029;-90
2022/08/08 00:05:24;;;;;;;0.60;0.43;;;;;;;-145.06;100.00;60892.56;5924625;23;20005;-91
2022/08/08 00:08:18;;;;;;;0.70;0.40;;;;;;;-145.06;100.00;60892.56;5924455;23;20005;-92
2022/08/08 00:11:12;;;;;;;0.38;0.30;;;;;;;-145.06;100.00;60892.56;5924886;23;20005;-90
2022/08/08 00:13:54;;;;;;;0.50;0.40;;;;;;;-145.06;100.00;60892.56;5924785;23;20005;-92
2022/08/08 00:16:49;;;;;;;0.68;0.40;;;;;;;-145.06;100.00;60892.56;5925004;23;20009;-92
2022/08/08 00:19:42;;;;;;;0.30;0.30;;;;;;;-145.06;100.00;60892.56;5945304;23;20006;-91
2022/08/08 00:22:35;;;;;;;0.40;0.32;;;;;;;-145.06;100.00;60892.56;5924329;23;20001;-91
2022/08/08 00:25:24;;;;;;;0.30;0.30;;;;;;;-145.06;100.00;60892.56;5924922;23;20005;-90
2022/08/08 00:28:08;;;;;;;0.52;0.38;;;;;;;-145.06;100.00;60892.56;5924475;23;20009;-91
2022/08/08 00:30:53;;;;;;;0.82;0.50;;;;;;;-145.06;100.00;60892.56;5924444;23;20310;-91
2022/08/08 00:33:44;;;;;;;0.50;0.40;;;;;;;-145.06;100.00;60892.56;5924219;23;20013;-92
2022/08/08 00:36:29;;;;;;;0.32;0.30;;;;;;;-145.06;100.00;60892.56;5924842;23;20029;-90
2022/08/08 00:39:16;;;;;;;0.50;0.40;;;;;;;-145.06;100.00;60892.56;5925485;23;20010;-89
2022/08/08 00:42:16;;;;;;;1.05;0.50;;;;;;;-145.06;100.00;60892.56;5924825;23;20009;-91
2022/08/08 00:45:14;;;;;;;0.55;0.40;;;;;;;-145.06;100.00;60892.56;5924599;23;20001;-90
2022/08/08 00:48:18;;;;;;;0.93;0.43;;;;;;;-145.06;100.00;60892.56;5924575;23;20009;-91
2022/08/08 00:51:19;;;;;;;0.45;0.40;;;;;;;-145.06;100.00;60892.56;5925562;23;20005;-91
2022/08/08 00:54:26;;;;;;;0.43;0.38;;;;;;;-145.06;100.00;60892.56;5925202;23;20005;-90
2022/08/08 00:57:41;;;;;;;0.35;0.30;;;;;;;-145.06;100.00;60892.56;5925820;23;20002;-91
2022/08/08 01:00:27;;;;;;;0.50;0.40;;;;;;;-145.06;100.00;60892.56;5923323;23;20080;-90
2022/08/08 01:03:28;;;;;;;0.73;0.60;;;;;;;-145.06;100.00;60892.56;5924781;23;20025;-91
2022/08/08 01:06:10;;;;;;;0.60;0.50;;;;;;;-145.06;100.00;60892.56;5924316;23;20033;-91
2022/08/08 01:09:05;;;;;;;0.50;0.43;;;;;;;-145.06;100.00;60892.56;5924741;23;20005;-90
2022/08/08 01:12:06;;;;;;;0.65;0.47;;;;;;;-145.06;100.00;60892.56;5925119;23;20002;-91
2022/08/08 01:15:05;;;;;;;0.50;0.30;;;;;;;-145.06;100.00;60892.56;5925174;23;20006;-91
2022/08/08 01:18:21;;;;;;;0.70;0.40;;;;;;;-145.06;100.00;60892.56;5924366;23;20025;-90
2022/08/08 01:21:39;;;;;;;0.77;0.30;;;;;;;-145.06;100.00;60892.56;5924814;23;20002;-92
2022/08/08 01:24:29;;;;;;;0.55;0.40;;;;;;;-145.06;100.00;60892.56;5895881;23;20010;-91
2022/08/08 01:27:38;;;;;;;0.60;0.50;;;;;;;-145.06;100.00;60892.56;5925178;23;20033;-90
2022/08/08 01:30:57;;;;;;;0.25;0.25;;;;;;;-145.06;100.00;60892.56;5924725;23;20006;-91
2022/08/08 01:34:03;;;;;;;1.45;0.50;;;;;;;-145.06;100.00;60892.56;5924700;23;19998;-90
2022/08/08 01:37:02;;;;;;;0.68;0.50;;;;;;;-145.06;100.00;60892.56;5925336;23;19997;-91
2022/08/08 01:39:56;;;;;;;0.55;0.40;;;;;;;-145.06;100.00;60892.56;5925228;23;20001;-91
2022/08/08 01:42:43;;;;;;;1.58;0.50;;;;;;;-145.06;100.00;60892.56;5925725;23;20432;-92
2022/08/08 01:45:47;;;;;;;0.68;0.50;;;;;;;-145.06;100.00;60892.56;5923903;23;20029;-92
2022/08/08 01:48:48;;;;;;;0.40;0.40;;;;;;;-145.06;100.00;60892.56;5925207;23;20006;-90
2022/08/08 01:52:05;;;;;;;0.65;0.50;;;;;;;-145.06;100.00;60892.56;5925505;23;20592;-91
2022/08/08 01:55:12;;;;;;;0.57;0.40;;;;;;;-145.06;100.00;60892.56;5925263;23;20298;-91
2022/08/08 01:58:06;;;;;;;0.40;0.30;;;;;;;-145.06;100.00;60892.56;5924935;23;20001;-90
2022/08/08 02:01:01;;;;;;;0.82;0.50;;;;;;;-145.06;100.00;60892.56;5924840;23;20001;-90
2022/08/08 02:04:01;;;;;;;0.52;0.45;;;;;;;-145.06;100.00;60892.56;5925155;23;20159;-90
2022/08/08 02:06:40;;;;;;;;;;;;;;;-145.06;100.00;60892.56;5925360;23;20060;-90
2022/08/08 02:09:43;;;;;;;0.40;0.30;;;;;;;-145.06;100.00;60892.56;5924569;23;19905;-91
2022/08/08 02:12:46;;;;;;;0.77;0.45;;;;;;;-145.06;100.00;60892.56;5925814;23;20009;-91
2022/08/08 02:15:44;;;;;;;0.68;0.50;;;;;;;-145.06;100.00;60892.56;5924610;23;20009;-90
2022/08/08 02:18:38;;;;;;;0.70;0.60;;;;;;;-145.06;100.00;60892.56;5945211;23;20006;-91
2022/08/08 02:24:33;;;;;;;0.90;0.50;;;;;;;-145.06;100.00;60892.56;5956658;23;20021;-91
2022/08/08 02:27:31;;;;;;;0.60;0.50;;;;;;;-145.06;100.00;60892.56;5924522;23;20006;-91
2022/08/08 02:30:33;;;;;;;1.05;0.63;;;;;;;-145.06;100.00;60892.56;5924433;23;20001;-90
2022/08/08 02:33:52;;;;;;;1.10;0.70;;;;;;;-145.06;100.00;60892.56;5924757;23;20009;-91
2022/08/08 02:36:45;;;;;;;0.95;0.60;;;;;;;-145.06;100.00;60892.56;5924582;23;20001;-91
2022/08/08 02:39:45;;;;;;;0.60;0.50;;;;;;;-145.06;100.00;60892.56;5926292;23;20005;-91
2022/08/08 02:42:46;;;;;;;0.55;0.50;;;;;;;-145.06;100.00;60892.56;5926588;23;20010;-90
2022/08/08 02:45:53;;;;;;;1.92;0.68;;;;;;;-145.06;100.00;60892.56;5925669;23;20005;-91
2022/08/08 02:48:37;;;;;;;0.50;0.50;;;;;;;-145.06;100.00;60892.56;5926650;23;20005;-91
2022/08/08 02:51:43;;;;;;;0.68;0.65;;;;;;;-145.06;100.00;60892.56;5926553;23;20002;-93
2022/08/08 02:54:47;;;;;;;0.90;0.70;;;;;;;-145.06;100.00;60892.56;5886313;23;20029;-91
2022/08/08 02:58:20;;;;;;;0.90;0.60;;;;;;;-145.06;100.00;60892.56;5926566;23;20033;-92
2022/08/08 03:01:30;;;;;;;0.80;0.50;;;;;;;-145.06;100.00;60892.56;5835268;23;20007;-91
2022/08/08 03:09:45;;;;;;;0.70;0.50;;;;;;;-145.06;100.00;60892.56;5975953;23;20021;-91
2022/08/08 03:12:37;;;;;;;1.27;0.50;;;;;;;-145.06;100.00;60892.56;5955238;23;20001;-92
2022/08/08 03:15:51;;;;;;;1.48;0.60;;;;;;;-145.06;100.00;60892.56;5954547;23;20004;-91
2022/08/08 03:18:38;;;;;;;0.73;0.40;;;;;;;-145.06;100.00;60892.56;5955205;23;20001;-91
2022/08/08 03:21:18;;;;;;;0.50;0.40;;;;;;;-145.06;100.00;60892.56;5954653;23;20001;-90
2022/08/08 03:24:02;;;;;;;0.40;0.32;;;;;;;-145.06;100.00;60892.56;5955135;23;20005;-91
2022/08/08 03:26:48;;;;;;;0.90;0.60;;;;;;;-145.06;100.00;60892.56;5954210;23;20005;-91
2022/08/08 03:29:40;;;;;;;0.65;0.60;;;;;;;-145.06;100.00;60892.56;5954540;23;20005;-92
2022/08/08 03:35:28;;;;;;;0.60;0.50;;;;;;;-145.06;100.00;60892.56;5986874;23;20004;-92
2022/08/08 03:38:10;;;;;;;0.63;0.55;;;;;;;-145.06;100.00;60892.56;5975569;23;20079;-91
2022/08/08 03:41:01;;;;;;;0.77;0.40;;;;;;;-145.06;100.00;60892.56;5954243;23;20005;-91
2022/08/08 03:43:55;;;;;;;0.80;0.40;;;;;;;-145.06;100.00;60892.56;5976156;23;20001;-91
2022/08/08 03:46:44;;;;;;;1.65;0.77;;;;;;;-145.06;100.00;60892.56;5953887;23;20001;-91
2022/08/08 03:49:39;;;;;;;0.60;0.40;;;;;;;-145.06;100.00;60892.56;5954835;23;20032;-90
2022/08/08 03:52:26;;;;;;;0.68;0.45;;;;;;;-145.06;100.00;60892.56;5954151;23;20005;-91
2022/08/08 03:55:14;;;;;;;0.95;0.60;;;;;;;-145.06;100.00;60892.56;5983080;23;20024;-91
2022/08/08 03:58:00;;;;;;;0.63;0.55;;;;;;;-145.06;100.00;60892.56;5975209;23;20383;-92
2022/08/08 04:00:47;;;;;;;1.10;0.73;;;;;;;-145.06;100.00;60892.56;5983566;23;20056;-91
2022/08/08 04:03:39;;;;;;;0.82;0.70;;;;;;;-145.06;100.00;60892.56;6004486;23;20004;-93
2022/08/08 04:06:19;;;;;;;0.88;0.40;;;;;;;-145.06;100.00;60892.56;5977140;23;20005;-90
2022/08/08 04:08:59;;;;;;;1.30;0.70;;;;;;;-145.06;100.00;60892.56;5975645;23;20013;-91
2022/08/08 04:11:43;;;;;;;1.25;0.60;;;;;;;-145.06;100.00;60892.56;5981329;23;20000;-91
2022/08/08 04:14:29;;;;;;;0.70;0.50;;;;;;;-145.06;100.00;60892.56;5977669;23;20013;-91
2022/08/08 04:17:11;;;;;;;0.95;0.63;;;;;;;-145.06;100.00;60892.56;5974818;23;20001;-90
2022/08/08 04:19:50;;;;;;;0.68;0.50;;;;;;;-145.06;100.00;60892.56;5975532;23;20009;-91
2022/08/08 04:22:37;;;;;;;1.13;0.50;;;;;;;-145.06;100.00;60892.56;5979539;23;20076;-91
2022/08/08 04:25:21;;;;;;;0.80;0.43;;;;;;;-145.06;100.00;60892.56;5976055;23;20036;-90
2022/08/08 04:28:03;;;;;;;0.63;0.47;;;;;;;-145.06;100.00;60892.56;5975005;23;20080;-92
2022/08/08 04:30:46;;;;;;;2.28;0.50;;;;;;;-145.06;100.00;60892.56;5982445;23;20005;-90
2022/08/08 04:33:36;;;;;;;0.68;0.38;;;;;;;-145.06;100.00;60892.56;5978552;23;20005;-91
2022/08/08 04:36:21;;;;;;;1.33;0.38;;;;;;;-145.06;100.00;60892.56;5975743;23;19997;-92
2022/08/08 04:39:09;;;;;;;1.30;0.80;;;;;;;-145.06;100.00;60892.56;5975174;23;20445;-91
2022/08/08 04:41:53;;;;;;;1.23;0.60;;;;;;;-145.06;100.00;60892.56;5982394;23;20005;-91
2022/08/08 04:44:38;;;;;;;0.65;0.52;;;;;;;-145.06;100.00;60892.56;5982678;23;20008;-92
2022/08/08 04:47:17;;;;;;;1.02;0.70;;;;;;;-145.06;100.00;60892.56;5976147;23;20126;-91
2022/08/08 04:49:59;;;;;;;0.90;0.63;;;;;;;-145.06;100.00;60892.56;5974705;23;20009;-91
2022/08/08 04:52:38;;;;;;;0.80;0.52;;;;;;;-145.06;100.00;60892.56;6003614;23;20236;-93
2022/08/08 04:55:23;;;;;;;0.60;0.60;;;;;;;-145.06;100.00;60892.56;5975807;23;20356;-91
2022/08/08 04:58:12;;;;;;;0.80;0.50;;;;;;;-145.06;100.00;60892.56;5975641;23;20027;-91
2022/08/08 05:00:52;;;;;;;0.70;0.60;;;;;;;-145.06;100.00;60892.56;5983195;23;20004;-91
2022/08/08 05:03:34;;;;;;;0.77;0.60;;;;;;;-145.06;100.00;60892.56;5983784;23;20012;-91
2022/08/08 05:06:34;;;;;;;1.00;0.60;;;;;;;-145.06;100.00;60892.56;5975595;23;20068;-91
2022/08/08 05:09:13;;;;;;;0.70;0.65;;;;;;;-145.06;100.00;60892.56;6005905;23;20016;-91
2022/08/08 05:12:04;;;;;;;0.77;0.63;;;;;;;-145.06;100.00;60892.56;5975269;23;20012;-91
2022/08/08 05:14:56;;;;;;;;;;;;;;;;;;;;;
2022/08/08 05:17:50;;;;;;;1.23;0.60;;;;;;;-145.06;100.00;60892.56;6014984;23;20005;-92
2022/08/08 05:20:41;;;;;;;0.65;0.55;;;;;;;-145.06;100.00;60892.56;5979415;23;20005;-93
2022/08/08 05:23:33;;;;;;;0.75;0.50;;;;;;;-145.06;100.00;60892.56;5976825;23;20005;-91
2022/08/08 05:26:16;;;;;;;1.15;0.80;;;;;;;-145.06;100.00;60892.56;5975122;23;20005;-91
2022/08/08 05:29:07;;;;;;;1.38;0.70;;;;;;;-145.06;100.00;60892.56;5975618;23;20452;-91
2022/08/08 05:31:54;;;;;;;0.93;0.60;;;;;;;-145.06;100.00;60892.56;5982824;23;20309;-92
2022/08/08 05:34:53;;;;;;;1.63;0.88;;;;;;;-145.06;100.00;60892.56;5980306;23;20005;-92
2022/08/08 05:37:38;;;;;;;0.85;0.68;;;;;;;-145.06;100.00;60892.56;5978556;23;19997;-90
2022/08/08 05:40:22;;;;;;;0.70;0.50;;;;;;;-145.06;100.00;60892.56;5975859;23;20004;-91
2022/08/08 05:43:18;;;;;;;1.05;0.63;;;;;;;-145.06;100.00;60892.56;5974513;23;20005;-92
2022/08/08 05:46:02;;;;;;;1.13;0.70;;;;;;;-145.06;100.00;60892.56;5975004;23;20009;-90
2022/08/08 05:48:42;;;;;;;1.92;0.77;;;;;;;-145.06;100.00;60892.56;5980316;23;20001;-89
2022/08/08 05:51:24;;;;;;;0.88;0.70;;;;;;;-145.06;100.00;60892.56;5973994;23;20028;-90
2022/08/08 05:54:28;;;;;;;0.95;0.70;;;;;;;-145.06;100.00;60892.56;5969033;23;20017;-91
2022/08/08 05:57:26;;;;;;;0.90;0.65;;;;;;;-145.06;100.00;60892.56;5968899;23;20073;-90
2022/08/08 06:00:14;;;;;;;0.77;0.50;;;;;;;-145.06;100.00;60892.56;5969715;23;20005;-90
2022/08/08 06:03:33;;;;;;;1.17;0.70;;;;;;;-145.06;100.00;60892.56;5970713;23;20005;-90
2022/08/08 06:06:16;;;;;;;1.20;0.88;;;;;;;-145.06;100.00;60892.56;5994779;23;19997;-92
2022/08/08 06:09:36;;;;;;;1.98;0.85;;;;;;;-145.06;100.00;60892.56;5979414;23;20021;-91
2022/08/08 06:12:19;;;;;;;1.15;0.90;;;;;;;-145.06;100.00;60892.56;5971707;23;20309;-91
2022/08/08 06:17:21;;;;;;;1.88;0.90;;;;;;;-145.06;100.00;60892.56;5944182;23;20104;-89
2022/08/08 06:20:36;;;;;;;;;;;;;;;;;;;;;
2022/08/08 06:23:26;;;;;;;1.60;0.98;;;;;;;-145.06;100.00;60892.56;5953765;23;20001;-89
2022/08/08 06:26:56;;;;;;;0.95;0.70;;;;;;;-145.06;100.00;60892.56;5899325;23;20002;-91
2022/08/08 06:30:07;;;;;;;1.98;1.00;;;;;;;-145.06;100.00;60892.56;5894427;23;20365;-90
2022/08/08 06:36:25;;;;;;;1.05;0.70;;;;;;;-145.06;100.00;60892.56;5960044;23;20021;-91
2022/08/08 06:39:08;;;;;;;1.30;0.90;;;;;;;-145.06;100.00;60892.56;5950212;23;20009;-91
2022/08/08 06:41:56;;;;;;;1.65;0.93;;;;;;;-145.06;100.00;60892.56;5949594;23;20005;-90
2022/08/08 06:45:18;;;;;;;1.88;0.70;;;;;;;-145.06;100.00;60892.56;5950706;23;20032;-89
2022/08/08 06:47:57;;;;;;;1.60;0.82;;;;;;;-145.06;100.00;60892.56;5936662;23;20009;-92
2022/08/08 06:59:57;;;;;;;1.52;0.90;;;;;;;-145.06;100.00;60892.56;5981470;23;20424;-90
2022/08/08 07:02:57;;;;;;;1.20;0.80;;;;;;;-145.06;100.00;60892.56;5970841;23;20439;-90
2022/08/08 07:05:58;;;;;;;1.65;0.90;;;;;;;-145.06;100.00;60892.56;5942507;23;20009;-91
2022/08/08 07:12:48;;;;;;;2.97;1.00;;;;;;;-145.06;100.00;60892.56;5865227;23;20078;-88
2022/08/08 07:19:46;;;;;;;1.35;1.00;;;;;;;-145.06;100.00;60892.56;5947782;23;20510;-90
2022/08/08 07:23:40;;;;;;;3.75;0.80;;;;;;;-145.06;100.00;60892.56;5921777;23;20088;-90
2022/08/08 07:26:21;;;;;;;3.50;1.30;;;;;;;-145.06;100.00;60892.56;5941489;23;20017;-89
2022/08/08 07:29:03;;;;;;;1.48;1.00;;;;;;;-145.06;100.00;60892.56;5921534;23;20009;-89
2022/08/08 07:34:56;;;;;;;1.40;0.95;;;;;;;-145.06;100.00;60892.56;5949746;23;20009;-89
2022/08/08 07:37:41;;;;;;;1.23;1.00;;;;;;;-145.06;100.00;60892.56;5942390;23;19998;-90
2022/08/08 07:40:22;;;;;;;3.88;1.30;;;;;;;-145.06;100.00;60892.56;5920881;23;20025;-89
2022/08/08 07:43:03;;;;;;;2.00;0.95;;;;;;;-145.06;100.00;60892.56;5921028;23;20006;-90
2022/08/08 07:45:43;;;;;;;1.33;0.90;;;;;;;-145.06;100.00;60892.56;5920145;23;20364;-89
2022/08/08 07:48:23;;;;;;;1.30;0.95;;;;;;;-145.06;100.00;60892.56;5920883;23;20009;-90
2022/08/08 07:51:11;;;;;;;1.30;0.80;;;;;;;-145.06;100.00;60892.56;5921095;23;20432;-89
2022/08/08 07:54:02;;;;;;;1.10;0.77;;;;;;;-145.06;100.00;60892.56;5920992;23;20006;-90
2022/08/08 07:57:02;;;;;;;1.52;1.10;;;;;;;-145.06;100.00;60892.56;5921175;23;20002;-88
2022/08/08 08:00:06;;;;;;;1.25;1.00;;;;;;;-145.06;100.00;60892.56;5920613;23;20464;-88
2022/08/08 08:03:19;;;;;;;1.77;0.90;;;;;;;-145.06;100.00;60892.56;5920717;23;19997;-90
2022/08/08 08:06:23;;;;;;;1.13;0.80;;;;;;;-145.06;100.00;60892.56;5920846;23;20325;-90
2022/08/08 08:09:41;;;;;;;;;;;;;;;;;;;;;
2022/08/08 08:12:24;;;;;;;2.75;1.05;;;;;;;-145.06;100.00;60892.56;5951993;23;20005;-90
2022/08/08 08:15:44;;;;;;;1.67;1.00;;;;;;;-145.06;100.00;60892.56;5931706;23;20021;-91
2022/08/08 08:19:17;;;;;;;1.23;1.00;;;;;;;-145.06;100.00;60892.56;5905881;23;20013;-89
2022/08/08 08:21:56;;;;;;;1.15;0.82;;;;;;;-145.06;100.00;60892.56;5948971;23;20072;-91
2022/08/08 08:24:36;;;;;;;1.08;0.82;;;;;;;-145.06;100.00;60892.56;5949527;23;20005;-91
2022/08/08 08:27:18;;;;;;;1.38;1.00;;;;;;;-145.06;100.00;60892.56;5949718;23;20369;-89
2022/08/08 08:30:05;;;;;;;1.35;0.90;;;;;;;-145.06;100.00;60892.56;5948670;23;20373;-91
2022/08/08 08:33:03;;;;;;;1.98;0.80;;;;;;;-145.06;100.00;60892.56;5949043;23;20005;-90
2022/08/08 08:36:16;;;;;;;1.75;1.10;;;;;;;-145.06;100.00;60892.56;5948439;23;20076;-90
2022/08/08 08:42:36;;;;;;;1.95;1.08;;;;;;;-145.06;100.00;60892.56;5980983;23;20435;-90
2022/08/08 08:45:15;;;;;;;1.90;1.10;;;;;;;-145.06;100.00;60892.56;5948003;23;20710;-91
2022/08/08 08:47:57;;;;;;;3.10;1.58;;;;;;;-145.06;100.00;60892.56;5948659;23;20005;-90
2022/08/08 08:50:38;;;;;;;2.20;1.00;;;;;;;-145.06;100.00;60892.56;5948756;23;20080;-90
2022/08/08 08:53:18;;;;;;;1.85;1.02;;;;;;;-145.06;100.00;60892.56;5947941;23;20009;-90
2022/08/08 08:55:58;;;;;;;1.20;1.00;;;;;;;-145.06;100.00;60892.56;5946487;23;20004;-90
2022/08/08 08:58:43;;;;;;;1.52;0.90;;;;;;;-145.06;100.00;60892.56;5946413;23;20005;-89
2022/08/08 09:01:29;;;;;;;1.48;1.10;;;;;;;-145.06;100.00;60892.56;5947389;23;20309;-91
2022/08/08 09:04:12;;;;;;;2.33;1.17;;;;;;;-145.06;100.00;60892.56;5948287;23;20293;-89
2022/08/08 09:07:03;;;;;;;1.10;0.85;;;;;;;-145.06;100.00;60892.56;5971634;23;20021;-91
2022/08/08 09:09:47;;;;;;;1.13;0.80;;;;;;;-145.06;100.00;60892.56;5964668;23;20012;-89
2022/08/08 09:12:28;;;;;;;1.27;0.93;;;;;;;-145.06;100.00;60892.56;5946813;23;20005;-88
2022/08/08 09:15:07;;;;;;;1.50;1.00;;;;;;;-145.06;100.00;60892.56;5946519;23;20439;-89
2022/08/08 09:17:59;;;;;;;1.35;0.70;;;;;;;-145.06;100.00;60892.56;5947741;23;20009;-90
2022/08/08 09:20:53;;;;;;;1.40;1.00;;;;;;;-145.06;100.00;60892.56;5945988;23;20054;-88
2022/08/08 09:23:33;;;;;;;0.98;0.80;;;;;;;-145.06;100.00;60892.56;5946217;23;20432;-89
2022/08/08 09:26:55;;;;;;;1.25;0.65;;;;;;;-145.06;100.00;60892.56;5946813;23;20083;-90
2022/08/08 09:30:28;;;;;;;1.25;0.70;;;;;;;-145.06;100.00;60892.56;5943366;23;20317;-89
2022/08/08 09:33:10;;;;;;;1.30;0.60;;;;;;;-145.06;100.00;60892.56;5900865;23;20008;-90
2022/08/08 09:35:51;;;;;;;1.92;0.70;;;;;;;-145.06;100.00;60892.56;5966866;23;20076;-91
2022/08/08 09:39:02;;;;;;;1.58;0.88;;;;;;;-145.06;100.00;60892.56;5967750;23;20005;-89
2022/08/08 09:41:42;;;;;;;0.90;0.60;;;;;;;-145.06;100.00;60892.56;5946938;23;20009;-90
2022/08/08 09:44:30;;;;;;;1.92;0.68;;;;;;;-145.06;100.00;60892.56;5944953;23;20009;-90
2022/08/08 09:47:13;;;;;;;1.30;0.90;;;;;;;-145.06;100.00;60892.56;5946186;23;20462;-91
2022/08/08 09:49:56;;;;;;;0.85;0.50;;;;;;;-145.06;100.00;60892.56;5946994;23;20013;-90
2022/08/08 09:52:37;;;;;;;1.10;0.80;;;;;;;-145.06;100.00;60892.56;5946737;23;20009;-91
2022/08/08 09:55:18;;;;;;;1.02;0.70;;;;;;;-145.06;100.00;60892.56;5976107;23;20499;-90
2022/08/08 09:58:14;;;;;;;1.27;0.77;;;;;;;-145.06;100.00;60892.56;5968398;23;20005;-90
2022/08/08 10:00:54;;;;;;;0.80;0.52;;;;;;;-145.06;100.00;60892.56;5968643;23;20008;-91
2022/08/08 10:03:35;;;;;;;1.33;0.82;;;;;;;-145.06;100.00;60892.56;5972896;23;20012;-91
2022/08/08 10:06:17;;;;;;;1.67;0.60;;;;;;;-145.06;100.00;60892.56;5968888;23;20541;-91
2022/08/08 10:08:56;;;;;;;1.05;0.70;;;;;;;-145.06;100.00;60892.56;5968117;23;20013;-90
2022/08/08 10:11:37;;;;;;;0.82;0.50;;;;;;;-145.06;100.00;60892.56;5974318;23;20001;-91
2022/08/08 10:14:44;;;;;;;0.80;0.60;;;;;;;-145.06;100.00;60892.56;5969625;23;20029;-91
2022/08/08 10:17:36;;;;;;;0.80;0.60;;;;;;;-145.06;100.00;60892.56;5971587;23;20023;-91
2022/08/08 10:20:16;;;;;;;0.73;0.60;;;;;;;-145.06;100.00;60892.56;5970163;23;20001;-90
2022/08/08 10:23:05;;;;;;;0.90;0.65;;;;;;;-145.06;100.00;60892.56;5968662;23;20009;-92
2022/08/08 10:25:45;;;;;;;0.55;0.40;;;;;;;-145.06;100.00;60892.56;5975752;23;20004;-92
2022/08/08 10:28:31;;;;;;;0.82;0.40;;;;;;;-145.06;100.00;60892.56;6007949;23;20087;-92
2022/08/08 10:34:18;;;;;;;;;;;;;;;-145.06;100.00;60892.56;6008696;23;20474;-89
2022/08/08 10:37:08;;;;;;;0.65;0.50;;;;;;;-145.06;100.00;60892.56;5975965;23;19939;-91
2022/08/08 10:39:47;;;;;;;;;;;;;;;-145.06;100.00;60892.56;5976798;23;20012;-90
2022/08/08 10:42:51;;;;;;;0.40;0.32;;;;;;;-145.06;100.00;60892.56;5971615;23;19979;-89
2022/08/08 10:45:49;;;;;;;0.60;0.28;;;;;;;-145.06;100.00;60892.56;5971108;23;20012;-91
2022/08/08 10:48:33;;;;;;;0.43;0.30;;;;;;;-145.06;100.00;60892.56;5971731;23;20052;-90
2022/08/08 10:51:12;;;;;;;1.02;0.40;;;;;;;-145.06;100.00;60892.56;5968749;23;20001;-91
2022/08/08 11:07:56;;;;;;;0.55;0.38;;;;;;;-145.06;100.00;60892.56;5866281;23;20529;-90
2022/08/08 11:22:28;;;;;;;0.40;0.40;;;;;;;-145.06;100.00;60892.56;5790002;23;20008;-89
2022/08/08 11:25:57;;;;;;;0.80;0.43;;;;;;;-145.06;100.00;60892.56;5779423;23;20005;-91
2022/08/08 12:02:53;;;;;;;0.60;0.40;;;;;;;-145.06;100.00;60892.56;5890458;23;20007;-92
2022/08/08 12:13:28;;;;;;;0.30;0.30;;;;;;;-145.06;100.00;60892.56;5919516;23;20005;-92
2022/08/08 12:16:31;;;;;;;0.43;0.32;;;;;;;-145.06;100.00;60892.56;5888351;23;19998;-90
2022/08/08 12:19:40;;;;;;;0.75;0.38;;;;;;;-145.06;100.00;60892.56;5906085;23;20005;-91
2022/08/08 12:23:06;;;;;;;;;;;;;;;;;;;;;
2022/08/08 12:31:59;;;;;;;0.30;0.30;;;;;;;-145.06;100.00;60892.56;5958333;23;20448;-92
2022/08/08 12:40:35;;;;;;;;;;;;;;;;;;;;;
2022/08/08 12:57:23;;;;;;;0.50;0.30;;;;;;;-145.06;100.00;60892.56;5949047;23;20157;-89
2022/08/08 13:00:05;;;;;;;0.30;0.30;;;;;;;-145.06;100.00;60892.56;5943355;23;20428;-90
2022/08/08 13:02:44;;;;;;;1.75;0.40;;;;;;;-145.06;100.00;60892.56;5942728;23;20036;-89
2022/08/08 13:05:23;;;;;;;0.45;0.30;;;;;;;-145.06;100.00;60892.56;5964724;23;20009;-90
2022/08/08 13:08:13;;;;;;;0.65;0.40;;;;;;;-145.06;100.00;60892.56;5942814;23;20013;-88
2022/08/08 13:10:53;;;;;;;0.40;0.30;;;;;;;-145.06;100.00;60892.56;5942340;23;20004;-88
2022/08/08 13:13:33;;;;;;;;;;;;;;;-145.06;100.00;60892.56;5943397;23;20080;-89
2022/08/08 13:16:18;;;;;;;0.50;0.35;;;;;;;-145.06;100.00;60892.56;5941819;23;19908;-90
2022/08/08 13:18:57;;;;;;;0.40;0.30;;;;;;;-145.06;100.00;60892.56;5940940;23;20373;-89
2022/08/08 13:21:45;;;;;;;0.50;0.40;;;;;;;-145.06;100.00;60892.56;5940467;23;20325;-90
2022/08/08 13:24:24;;;;;;;0.32;0.28;;;;;;;-145.06;100.00;60892.56;5941765;23;20574;-89
2022/08/08 13:27:08;;;;;;;0.28;0.28;;;;;;;-145.06;100.00;60892.56;5943013;23;20040;-90
2022/08/08 13:29:52;;;;;;;0.30;0.30;;;;;;;-145.06;100.00;60892.56;5961841;23;20005;-88
2022/08/08 13:32:36;;;;;;;0.60;0.40;;;;;;;-145.06;100.00;60892.56;5942102;23;20017;-90
2022/08/08 13:35:15;;;;;;;0.80;0.57;;;;;;;-145.06;100.00;60892.56;5942726;23;20101;-90
2022/08/08 13:38:01;;;;;;;;;;;;;;;-145.06;100.00;60892.56;5973705;23;20009;-90
2022/08/08 13:40:42;;;;;;;0.45;0.35;;;;;;;-145.06;100.00;60892.56;5941875;23;20316;-90
2022/08/08 13:43:21;;;;;;;0.28;0.28;;;;;;;-145.06;100.00;60892.56;5961896;23;20021;-89
2022/08/08 13:46:15;;;;;;;0.40;0.30;;;;;;;-145.06;100.00;60892.56;5977499;23;20020;-90
2022/08/08 13:48:54;;;;;;;0.77;0.35;;;;;;;-145.06;100.00;60892.56;5963510;23;20043;-90
2022/08/08 13:51:33;;;;;;;0.30;0.30;;;;;;;-145.06;100.00;60892.56;5963523;23;20020;-89
2022/08/08 13:54:20;;;;;;;1.08;0.38;;;;;;;-145.06;100.00;60892.56;5963785;23;20016;-90
2022/08/08 13:57:06;;;;;;;0.50;0.40;;;;;;;-145.06;100.00;60892.56;5963894;23;20087;-90
2022/08/08 13:59:47;;;;;;;0.43;0.40;;;;;;;-145.06;100.00;60892.56;5963864;23;20459;-91
2022/08/08 14:02:27;;;;;;;0.98;0.40;;;;;;;-145.06;100.00;60892.56;5963009;23;20013;-90
2022/08/08 14:05:11;;;;;;;;;;;;;;;-145.06;100.00;60892.56;5993131;23;20005;-90
2022/08/08 14:07:50;;;;;;;0.30;0.20;;;;;;;-145.06;100.00;60892.56;5972517;23;20372;-90
2022/08/08 14:10:29;;;;;;;0.95;0.52;;;;;;;-145.06;100.00;60892.56;5969058;23;20612;-90
2022/08/08 14:13:14;;;;;;;0.52;0.38;;;;;;;-145.06;100.00;60892.56;5971866;23;20391;-90
2022/08/08 14:16:00;;;;;;;0.40;0.30;;;;;;;-145.06;100.00;60892.56;5971575;23;20008;-90
2022/08/08 14:18:50;;;;;;;0.40;0.40;;;;;;;-145.06;100.00;60892.56;5968846;23;20088;-91
2022/08/08 14:21:40;;;;;;;0.60;0.35;;;;;;;-145.06;100.00;60892.56;5972781;23;20083;-92
2022/08/08 14:24:39;;;;;;;1.33;0.45;;;;;;;-145.06;100.00;60892.56;5974735;23;20004;-91
2022/08/08 14:27:33;;;;;;;;;;;;;;;;;;;;;
2022/08/08 14:30:18;;;;;;;0.40;0.40;;;;;;;-145.06;100.00;60892.56;6010796;23;20024;-91
2022/08/08 14:33:08;;;;;;;0.50;0.40;;;;;;;-145.06;100.00;60892.56;5977716;23;20004;-92
2022/08/08 14:36:03;;;;;;;0.90;0.57;;;;;;;-145.06;100.00;60892.56;5999535;23;20012;-92
2022/08/08 14:38:44;;;;;;;0.85;0.50;;;;;;;-145.06;100.00;60892.56;5971398;23;20017;-93
2022/08/08 14:41:41;;;;;;;0.30;0.30;;;;;;;-145.06;100.00;60892.56;5979312;23;20320;-93
2022/08/08 14:45:33;;;;;;;;;;;;;;;;;;;;;
2022/08/08 14:48:15;;;;;;;1.20;0.57;;;;;;;-145.06;100.00;60892.56;5950660;23;20471;-91
2022/08/08 14:54:43;;;;;;;0.30;0.30;;;;;;;-145.06;100.00;60892.56;5977483;23;20008;-92
2022/08/08 15:01:50;;;;;;;;;;;;;;;;;;;;;
2022/08/08 15:08:46;;;;;;;;;;;;;;;;;;;;;
2022/08/08 15:11:25;;;;;;;0.75;0.50;;;;;;;-145.06;100.00;60892.56;6013608;23;20004;-91
2022/08/08 16:12:11;;;;;;;0.60;0.60;;;;;;;-145.06;100.00;60892.56;6006825;22;20021;-92
2022/08/08 17:13:05;;;;;;;0.60;0.40;;;;;;;-145.06;100.00;60892.56;5979407;23;20039;-90
2022/08/08 17:16:34;;;;;;;0.90;0.40;;;;;;;-145.06;100.00;60892.56;6013087;23;20008;-90
2022/08/08 17:19:14;;;;;;;0.63;0.32;;;;;;;-145.06;100.00;60892.56;6012644;23;20000;-90
2022/08/08 17:21:59;;;;;;;;;;;;;;;-145.06;100.00;60892.56;6011702;23;20004;-90
2022/08/08 17:25:28;;;;;;;;;;;;;;;;;;;;;
2022/08/08 17:31:58;;;;;;;0.32;0.22;;;;;;;-145.06;100.00;60892.56;6037221;23;20486;-91
2022/08/08 17:34:37;;;;;;;0.43;0.28;;;;;;;-145.06;100.00;60892.56;6004640;23;20560;-91
2022/08/08 17:37:16;;;;;;;0.25;0.25;;;;;;;-145.06;100.00;60892.56;6004374;23;20434;-90
2022/08/08 17:39:57;;;;;;;0.50;0.20;;;;;;;-145.06;100.00;60892.56;6005073;23;20380;-91
2022/08/08 17:42:39;;;;;;;0.40;0.30;;;;;;;-145.06;100.00;60892.56;6003184;23;20404;-90
2022/08/08 17:45:19;;;;;;;0.30;0.30;;;;;;;-145.06;100.00;60892.56;6002633;23;20376;-89
2022/08/08 17:47:58;;;;;;;0.50;0.40;;;;;;;-145.06;100.00;60892.56;6002603;23;20008;-89